Time,TemperatureF,DewpointF,PressureIn,WindDirection,WindDirectionDegrees,WindSpeedMPH,WindSpeedGustMPH,Humidity,HourlyPrecipIn,Conditions,Clouds,dailyrainin,SoftwareType,DateUTC
2013-04-01 00:01:00,47.5,43.8,30.00,NW,315,0.0,0.0,87,0.00,,---,0.00,VWS V14.01,2013-04-01 07:01:00,
2013-04-01 00:06:00,47.3,43.6,30.00,NW,315,0.0,0.0,87,0.00,,---,0.00,VWS V14.01,2013-04-01 07:06:00,
2013-04-01 00:12:00,47.1,43.5,30.03,NW,315,0.0,0.0,87,0.00,,---,0.00,VWS V14.01,2013-04-01 07:12:00,
2013-04-01 00:17:00,47.1,43.5,30.03,NW,315,0.0,0.0,87,0.00,,---,0.00,VWS V14.01,2013-04-01 07:17:00,
2013-04-01 00:22:00,46.9,43.3,30.03,NW,315,0.0,0.0,87,0.00,,---,0.00,VWS V14.01,2013-04-01 07:22:00,
2013-04-01 00:27:00,46.6,42.9,30.00,NW,315,0.0,0.0,87,0.00,,---,0.00,VWS V14.01,2013-04-01 07:27:00,
2013-04-01 00:32:00,46.6,42.9,30.00,NW,315,0.0,0.0,87,0.00,,---,0.00,VWS V14.01,2013-04-01 07:32:00,
2013-04-01 00:37:00,46.6,43.2,30.03,NW,315,0.0,0.0,88,0.00,,---,0.00,VWS V14.01,2013-04-01 07:37:00,
2013-04-01 00:42:00,46.4,43.0,30.03,NW,315,0.0,0.0,88,0.00,,---,0.00,VWS V14.01,2013-04-01 07:42:00,
2013-04-01 00:48:00,46.2,43.2,30.03,NW,315,0.0,0.0,89,0.00,,---,0.00,VWS V14.01,2013-04-01 07:48:00,
2013-04-01 00:53:00,46.0,43.0,30.03,NW,315,0.0,0.0,89,0.00,,---,0.00,VWS V14.01,2013-04-01 07:53:00,
2013-04-01 00:58:00,46.0,43.3,30.03,NW,315,0.0,0.0,90,0.00,,---,0.00,VWS V14.01,2013-04-01 07:58:00,
2013-04-01 01:03:00,46.2,43.7,30.03,NW,315,0.0,0.0,91,0.00,,---,0.00,VWS V14.01,2013-04-01 08:03:00,
2013-04-01 01:08:00,46.2,43.7,30.03,NW,315,0.0,0.0,91,0.00,,---,0.00,VWS V14.01,2013-04-01 08:08:00,
2013-04-01 01:13:00,46.2,43.7,30.03,NW,315,0.0,0.0,91,0.00,,---,0.00,VWS V14.01,2013-04-01 08:13:00,
2013-04-01 01:19:00,46.4,43.9,30.03,NW,315,0.0,0.0,91,0.00,,---,0.00,VWS V14.01,2013-04-01 08:19:00,
2013-04-01 01:24:00,46.4,43.9,30.06,NW,315,0.0,0.0,91,0.00,,---,0.00,VWS V14.01,2013-04-01 08:24:00,
2013-04-01 01:29:00,46.6,44.1,30.06,NW,315,0.0,0.0,91,0.00,,---,0.00,VWS V14.01,2013-04-01 08:29:00,
2013-04-01 01:34:00,46.6,44.1,30.06,NW,315,0.0,0.0,91,0.00,,---,0.00,VWS V14.01,2013-04-01 08:34:00,
2013-04-01 01:39:00,46.8,44.3,30.06,NW,315,0.0,0.0,91,0.00,,---,0.00,VWS V14.01,2013-04-01 08:39:00,
2013-04-01 01:44:00,46.8,44.3,30.06,NW,315,0.0,0.0,91,0.00,,---,0.00,VWS V14.01,2013-04-01 08:44:00,
2013-04-01 01:49:00,46.9,44.5,30.06,NW,315,0.0,0.0,91,0.00,,---,0.00,VWS V14.01,2013-04-01 08:49:00,
2013-04-01 01:54:00,46.9,44.5,30.06,NW,315,0.0,0.0,91,0.00,,---,0.00,VWS V14.01,2013-04-01 08:54:00,
2013-04-01 01:59:00,47.1,44.6,30.06,NW,315,0.0,0.0,91,0.00,,---,0.00,VWS V14.01,2013-04-01 08:59:00,
2013-04-01 02:05:00,47.1,44.9,30.06,NW,315,0.0,0.0,92,0.00,,---,0.00,VWS V14.01,2013-04-01 09:05:00,
2013-04-01 02:10:00,47.3,45.1,30.06,NW,315,0.0,0.0,92,0.00,,---,0.00,VWS V14.01,2013-04-01 09:10:00,
2013-04-01 02:15:00,47.3,45.1,30.06,NW,315,0.0,0.0,92,0.00,,---,0.00,VWS V14.01,2013-04-01 09:15:00,
2013-04-01 02:20:00,47.5,45.3,30.06,NW,315,0.0,0.0,92,0.00,,---,0.00,VWS V14.01,2013-04-01 09:20:00,
2013-04-01 02:25:00,47.7,45.5,30.06,NW,315,0.0,0.0,92,0.00,,---,0.00,VWS V14.01,2013-04-01 09:25:00,
2013-04-01 02:30:00,47.7,45.5,30.06,NW,315,0.0,0.0,92,0.00,,---,0.00,VWS V14.01,2013-04-01 09:30:00,
2013-04-01 02:36:00,47.8,45.6,30.06,NW,315,0.0,0.0,92,0.00,,---,0.00,VWS V14.01,2013-04-01 09:36:00,
2013-04-01 02:41:00,47.8,45.6,30.06,NW,315,0.0,0.0,92,0.00,,---,0.00,VWS V14.01,2013-04-01 09:41:00,
2013-04-01 02:46:00,47.8,45.6,30.06,NW,315,0.0,0.0,92,0.00,,---,0.00,VWS V14.01,2013-04-01 09:46:00,
2013-04-01 02:51:00,48.0,45.8,30.06,NW,315,0.0,0.0,92,0.00,,---,0.00,VWS V14.01,2013-04-01 09:51:00,
2013-04-01 02:56:00,48.0,45.8,30.06,NW,315,0.0,0.0,92,0.00,,---,0.00,VWS V14.01,2013-04-01 09:56:00,
2013-04-01 03:01:00,48.2,45.7,30.06,NW,315,0.0,0.0,91,0.00,,---,0.00,VWS V14.01,2013-04-01 10:01:00,
2013-04-01 03:07:00,48.2,45.7,30.06,NW,315,0.0,0.0,91,0.00,,---,0.00,VWS V14.01,2013-04-01 10:07:00,
2013-04-01 03:12:00,48.4,45.9,30.06,NW,315,0.0,0.0,91,0.00,,---,0.00,VWS V14.01,2013-04-01 10:12:00,
2013-04-01 03:17:00,48.4,45.9,30.06,NW,315,0.0,0.0,91,0.00,,---,0.00,VWS V14.01,2013-04-01 10:17:00,
2013-04-01 03:22:00,48.6,46.1,30.06,WNW,292,0.0,0.0,91,0.00,,---,0.00,VWS V14.01,2013-04-01 10:22:00,
2013-04-01 03:27:00,48.6,46.3,30.06,WNW,292,0.0,0.0,92,0.00,,---,0.00,VWS V14.01,2013-04-01 10:27:00,
2013-04-01 03:33:00,48.6,46.3,30.06,NW,315,0.0,0.0,92,0.00,,---,0.00,VWS V14.01,2013-04-01 10:33:00,
2013-04-01 03:38:00,48.7,46.5,30.06,NW,315,0.0,0.0,92,0.00,,---,0.00,VWS V14.01,2013-04-01 10:38:00,
2013-04-01 03:43:00,48.7,46.5,30.06,NW,315,0.0,0.0,92,0.00,,---,0.00,VWS V14.01,2013-04-01 10:43:00,
2013-04-01 03:48:00,48.7,46.5,30.06,NW,315,0.0,0.0,92,0.00,,---,0.00,VWS V14.01,2013-04-01 10:48:00,
2013-04-01 03:53:00,48.7,46.5,30.06,NW,315,0.0,0.0,92,0.00,,---,0.00,VWS V14.01,2013-04-01 10:53:00,
2013-04-01 03:59:00,48.7,46.5,30.06,WNW,292,0.0,0.0,92,0.00,,---,0.00,VWS V14.01,2013-04-01 10:59:00,
2013-04-01 04:04:00,48.7,46.5,30.06,WNW,292,0.0,0.0,92,0.00,,---,0.00,VWS V14.01,2013-04-01 11:04:00,
2013-04-01 04:09:00,48.7,46.5,30.09,WNW,292,0.0,0.0,92,0.00,,---,0.00,VWS V14.01,2013-04-01 11:09:00,
2013-04-01 04:14:00,48.9,46.7,30.09,WNW,292,0.0,0.0,92,0.00,,---,0.00,VWS V14.01,2013-04-01 11:14:00,
2013-04-01 04:19:00,48.9,46.7,30.09,West,270,0.0,0.0,92,0.00,,---,0.00,VWS V14.01,2013-04-01 11:19:00,
2013-04-01 04:24:00,48.9,46.7,30.09,WSW,248,0.0,0.0,92,0.00,,---,0.00,VWS V14.01,2013-04-01 11:24:00,
2013-04-01 04:29:00,48.9,46.7,30.09,WSW,248,0.0,0.0,92,0.00,,---,0.00,VWS V14.01,2013-04-01 11:29:00,
2013-04-01 04:34:00,48.9,46.7,30.09,WSW,248,0.0,0.0,92,0.00,,---,0.00,VWS V14.01,2013-04-01 11:34:00,
2013-04-01 04:39:00,48.9,46.7,30.09,WSW,248,0.0,0.0,92,0.00,,---,0.00,VWS V14.01,2013-04-01 11:39:00,
2013-04-01 04:44:00,48.9,46.7,30.09,WSW,248,0.0,0.0,92,0.00,,---,0.00,VWS V14.01,2013-04-01 11:44:00,
2013-04-01 04:49:00,48.9,47.0,30.09,ENE,68,0.0,0.0,93,0.00,,---,0.00,VWS V14.01,2013-04-01 11:49:00,
2013-04-01 04:54:00,48.7,46.8,30.09,NNE,22,0.0,0.0,93,0.00,,---,0.00,VWS V14.01,2013-04-01 11:54:00,
2013-04-01 04:59:00,48.7,46.8,30.09,SE,135,0.0,0.0,93,0.00,,---,0.00,VWS V14.01,2013-04-01 11:59:00,
2013-04-01 05:04:00,48.7,46.8,30.09,SSW,202,0.0,0.0,93,0.00,,---,0.00,VWS V14.01,2013-04-01 12:04:00,
2013-04-01 05:09:00,48.7,46.8,30.09,SW,225,0.0,0.0,93,0.00,,---,0.00,VWS V14.01,2013-04-01 12:09:00,
2013-04-01 05:15:00,48.7,46.8,30.09,WSW,248,0.0,0.0,93,0.00,,---,0.00,VWS V14.01,2013-04-01 12:15:00,
2013-04-01 05:20:00,48.7,46.8,30.09,WSW,248,0.0,0.0,93,0.00,,---,0.00,VWS V14.01,2013-04-01 12:20:00,
2013-04-01 05:25:00,48.6,46.6,30.09,West,270,0.0,0.0,93,0.00,,---,0.00,VWS V14.01,2013-04-01 12:25:00,
2013-04-01 05:30:00,48.6,46.6,30.09,West,270,0.0,0.0,93,0.00,,---,0.00,VWS V14.01,2013-04-01 12:30:00,
2013-04-01 05:35:00,48.6,46.9,30.09,West,270,0.0,0.0,94,0.00,,---,0.00,VWS V14.01,2013-04-01 12:35:00,
2013-04-01 05:40:00,48.6,46.9,30.09,SW,225,0.0,0.0,94,0.00,,---,0.00,VWS V14.01,2013-04-01 12:40:00,
2013-04-01 05:45:00,48.6,46.9,30.09,WSW,248,0.0,0.0,94,0.00,,---,0.00,VWS V14.01,2013-04-01 12:45:00,
2013-04-01 05:50:00,48.4,46.7,30.09,WSW,248,0.0,0.0,94,0.00,,---,0.00,VWS V14.01,2013-04-01 12:50:00,
2013-04-01 05:56:00,48.4,46.7,30.09,SW,225,0.0,0.0,94,0.00,,---,0.00,VWS V14.01,2013-04-01 12:56:00,
2013-04-01 06:01:00,48.4,46.7,30.09,WSW,248,0.0,0.0,94,0.00,,---,0.00,VWS V14.01,2013-04-01 13:01:00,
2013-04-01 06:06:00,48.4,46.7,30.09,WSW,248,0.0,0.0,94,0.00,,---,0.00,VWS V14.01,2013-04-01 13:06:00,
2013-04-01 06:11:00,48.4,46.7,30.09,WSW,248,0.0,0.0,94,0.00,,---,0.00,VWS V14.01,2013-04-01 13:11:00,
2013-04-01 06:16:00,48.4,46.7,30.09,WSW,248,0.0,0.0,94,0.00,,---,0.00,VWS V14.01,2013-04-01 13:16:00,
2013-04-01 06:21:00,48.2,46.6,30.09,WSW,248,0.0,0.0,94,0.00,,---,0.00,VWS V14.01,2013-04-01 13:21:00,
2013-04-01 06:26:00,48.2,46.6,30.09,WSW,248,0.0,0.0,94,0.00,,---,0.00,VWS V14.01,2013-04-01 13:26:00,
2013-04-01 06:32:00,48.2,46.6,30.09,WSW,248,0.0,0.0,94,0.00,,---,0.00,VWS V14.01,2013-04-01 13:32:00,
2013-04-01 06:37:00,48.2,46.6,30.09,WSW,248,0.0,0.0,94,0.00,,---,0.00,VWS V14.01,2013-04-01 13:37:00,
2013-04-01 06:42:00,48.2,46.6,30.09,WSW,248,0.0,0.0,94,0.00,,---,0.00,VWS V14.01,2013-04-01 13:42:00,
2013-04-01 06:47:00,48.2,46.8,30.09,WSW,248,0.0,0.0,95,0.00,,---,0.00,VWS V14.01,2013-04-01 13:47:00,
2013-04-01 06:52:00,48.2,46.8,30.09,WSW,248,0.0,0.0,95,0.00,,---,0.00,VWS V14.01,2013-04-01 13:52:00,
2013-04-01 06:57:00,48.2,46.6,30.09,WSW,248,0.0,0.0,94,0.00,,---,0.00,VWS V14.01,2013-04-01 13:57:00,
2013-04-01 07:02:00,48.2,46.6,30.09,WSW,248,0.0,0.0,94,0.00,,---,0.00,VWS V14.01,2013-04-01 14:02:00,
2013-04-01 07:07:00,48.2,46.6,30.09,WSW,248,0.0,0.0,94,0.00,,---,0.00,VWS V14.01,2013-04-01 14:07:00,
2013-04-01 07:12:00,48.2,46.6,30.09,North,0,0.0,0.0,94,0.00,,---,0.00,VWS V14.01,2013-04-01 14:12:00,
2013-04-01 07:18:00,48.4,46.7,30.09,West,270,0.0,0.0,94,0.00,,---,0.00,VWS V14.01,2013-04-01 14:18:00,
2013-04-01 07:23:00,48.4,46.7,30.09,West,270,0.0,0.0,94,0.00,,---,0.00,VWS V14.01,2013-04-01 14:23:00,
2013-04-01 07:28:00,48.4,46.7,30.09,West,270,0.0,0.0,94,0.00,,---,0.00,VWS V14.01,2013-04-01 14:28:00,
2013-04-01 07:33:00,48.6,46.9,30.09,West,270,0.0,0.0,94,0.00,,---,0.00,VWS V14.01,2013-04-01 14:33:00,
2013-04-01 07:38:00,48.6,46.9,30.12,West,270,0.0,0.0,94,0.00,,---,0.00,VWS V14.01,2013-04-01 14:38:00,
2013-04-01 07:44:00,48.7,47.1,30.12,West,270,0.0,0.0,94,0.00,,---,0.00,VWS V14.01,2013-04-01 14:44:00,
2013-04-01 07:49:00,48.9,47.3,30.12,West,270,0.0,0.0,94,0.00,,---,0.00,VWS V14.01,2013-04-01 14:49:00,
2013-04-01 07:54:00,48.9,47.3,30.12,West,270,0.0,0.0,94,0.00,,---,0.00,VWS V14.01,2013-04-01 14:54:00,
2013-04-01 07:59:00,49.3,47.6,30.12,West,270,0.0,0.0,94,0.00,,---,0.00,VWS V14.01,2013-04-01 14:59:00,
2013-04-01 08:04:00,49.3,47.6,30.12,NNW,338,0.0,0.0,94,0.00,,---,0.00,VWS V14.01,2013-04-01 15:04:00,
2013-04-01 08:10:00,49.5,47.8,30.12,WSW,248,0.0,0.0,94,0.00,,---,0.00,VWS V14.01,2013-04-01 15:10:00,
2013-04-01 08:15:00,49.6,48.0,30.12,NNE,22,1.3,2.2,94,0.00,,---,0.00,VWS V14.01,2013-04-01 15:15:00,
2013-04-01 08:20:00,49.8,48.2,30.12,NNE,22,0.0,0.0,94,0.00,,---,0.00,VWS V14.01,2013-04-01 15:20:00,
2013-04-01 08:25:00,50.0,48.1,30.12,NNE,22,0.0,0.0,93,0.00,,---,0.00,VWS V14.01,2013-04-01 15:25:00,
2013-04-01 08:30:00,50.4,48.4,30.12,NW,315,0.0,0.0,93,0.00,,---,0.00,VWS V14.01,2013-04-01 15:30:00,
2013-04-01 08:35:00,50.7,48.8,30.12,SW,225,0.0,0.0,93,0.00,,---,0.00,VWS V14.01,2013-04-01 15:35:00,
2013-04-01 08:40:00,51.1,49.1,30.12,WNW,292,0.0,0.0,93,0.00,,---,0.00,VWS V14.01,2013-04-01 15:40:00,
2013-04-01 08:45:00,51.3,49.0,30.12,SW,225,0.0,0.0,92,0.00,,---,0.00,VWS V14.01,2013-04-01 15:45:00,
2013-04-01 08:50:00,51.4,48.9,30.12,West,270,0.0,0.0,91,0.00,,---,0.00,VWS V14.01,2013-04-01 15:50:00,
2013-04-01 08:55:00,51.4,48.9,30.12,NE,45,1.6,1.6,91,0.00,,---,0.00,VWS V14.01,2013-04-01 15:55:00,
2013-04-01 09:00:00,50.9,47.8,30.12,NE,45,0.0,1.3,89,0.00,,---,0.00,VWS V14.01,2013-04-01 16:00:00,
2013-04-01 09:05:00,51.1,48.0,30.12,NNE,22,0.0,0.0,89,0.00,,---,0.00,VWS V14.01,2013-04-01 16:05:00,
2013-04-01 09:10:00,51.4,48.3,30.12,SSE,158,0.0,0.0,89,0.00,,---,0.00,VWS V14.01,2013-04-01 16:10:00,
2013-04-01 09:15:00,51.6,48.5,30.12,South,180,0.0,0.0,89,0.00,,---,0.00,VWS V14.01,2013-04-01 16:15:00,
2013-04-01 09:20:00,52.2,49.0,30.12,South,180,0.0,0.0,89,0.00,,---,0.00,VWS V14.01,2013-04-01 16:20:00,
2013-04-01 09:25:00,52.3,48.9,30.12,SW,225,0.0,0.0,88,0.00,,---,0.00,VWS V14.01,2013-04-01 16:25:00,
2013-04-01 09:30:00,52.5,49.1,30.12,West,270,1.1,2.0,88,0.00,,---,0.00,VWS V14.01,2013-04-01 16:30:00,
2013-04-01 09:35:00,53.1,49.3,30.12,WSW,248,0.0,0.0,87,0.00,,---,0.00,VWS V14.01,2013-04-01 16:35:00,
2013-04-01 09:40:00,53.2,49.2,30.15,WSW,248,0.0,0.0,86,0.00,,---,0.00,VWS V14.01,2013-04-01 16:40:00,
2013-04-01 09:45:00,54.0,49.6,30.15,West,270,0.0,0.0,85,0.00,,---,0.00,VWS V14.01,2013-04-01 16:45:00,
2013-04-01 09:50:00,54.9,50.1,30.15,West,270,0.0,0.0,84,0.00,,---,0.00,VWS V14.01,2013-04-01 16:50:00,
2013-04-01 09:55:00,54.9,49.5,30.15,West,270,0.0,1.3,82,0.00,,---,0.00,VWS V14.01,2013-04-01 16:55:00,
2013-04-01 10:00:00,55.2,49.5,30.15,West,270,1.1,1.6,81,0.00,,---,0.00,VWS V14.01,2013-04-01 17:00:00,
2013-04-01 10:05:00,56.1,49.7,30.15,WNW,292,0.0,0.0,79,0.00,,---,0.00,VWS V14.01,2013-04-01 17:05:00,
2013-04-01 10:10:00,56.5,50.1,30.15,WNW,292,0.0,0.0,79,0.00,,---,0.00,VWS V14.01,2013-04-01 17:10:00,
2013-04-01 10:16:00,56.3,49.2,30.15,NNW,338,0.0,0.0,77,0.00,,---,0.00,VWS V14.01,2013-04-01 17:16:00,
2013-04-01 10:21:00,55.9,48.1,30.15,West,270,1.1,1.3,75,0.00,,---,0.00,VWS V14.01,2013-04-01 17:21:00,
2013-04-01 10:26:00,56.7,48.8,30.15,SW,225,0.0,1.3,75,0.00,,---,0.00,VWS V14.01,2013-04-01 17:26:00,
2013-04-01 10:31:00,57.4,49.2,30.15,WSW,248,0.0,1.6,74,0.00,,---,0.00,VWS V14.01,2013-04-01 17:31:00,
2013-04-01 10:36:00,57.7,48.0,30.15,NNE,22,1.1,1.1,70,0.00,,---,0.00,VWS V14.01,2013-04-01 17:36:00,
2013-04-01 10:41:00,59.0,49.2,30.15,WSW,248,0.0,0.0,70,0.00,,---,0.00,VWS V14.01,2013-04-01 17:41:00,
2013-04-01 10:47:00,61.0,51.1,30.15,South,180,1.1,2.0,70,0.00,,---,0.00,VWS V14.01,2013-04-01 17:47:00,
2013-04-01 10:52:00,63.0,52.2,30.15,SSW,202,2.7,2.7,68,0.00,,---,0.00,VWS V14.01,2013-04-01 17:52:00,
2013-04-01 10:57:00,63.3,50.1,30.15,SSE,158,1.6,2.0,62,0.00,,---,0.00,VWS V14.01,2013-04-01 17:57:00,
2013-04-01 11:02:00,67.5,53.6,30.15,East,90,1.3,1.3,61,0.00,,---,0.00,VWS V14.01,2013-04-01 18:02:00,
2013-04-01 11:07:00,68.7,48.8,30.15,ENE,68,2.5,2.7,49,0.00,,---,0.00,VWS V14.01,2013-04-01 18:07:00,
2013-04-01 11:12:00,68.9,50.0,30.15,ENE,68,0.0,0.0,51,0.00,,---,0.00,VWS V14.01,2013-04-01 18:12:00,
2013-04-01 11:18:00,67.5,46.0,30.15,SSE,158,2.0,3.1,46,0.00,,---,0.00,VWS V14.01,2013-04-01 18:18:00,
2013-04-01 11:23:00,69.4,48.3,30.15,West,270,3.1,3.1,47,0.00,,---,0.00,VWS V14.01,2013-04-01 18:23:00,
2013-04-01 11:28:00,68.5,46.4,30.15,West,270,2.0,2.7,45,0.00,,---,0.00,VWS V14.01,2013-04-01 18:28:00,
2013-04-01 11:33:00,68.4,46.8,30.15,West,270,0.0,0.0,46,0.00,,---,0.00,VWS V14.01,2013-04-01 18:33:00,
2013-04-01 11:38:00,67.6,44.4,30.12,WNW,292,1.1,2.5,43,0.00,,---,0.00,VWS V14.01,2013-04-01 18:38:00,
2013-04-01 11:43:00,68.2,44.9,30.12,WNW,292,3.1,3.4,43,0.00,,---,0.00,VWS V14.01,2013-04-01 18:43:00,
2013-04-01 11:48:00,69.3,47.0,30.12,North,0,0.0,0.0,45,0.00,,---,0.00,VWS V14.01,2013-04-01 18:48:00,
2013-04-01 11:53:00,70.2,46.6,30.15,SW,225,0.9,0.9,43,0.00,,---,0.00,VWS V14.01,2013-04-01 18:53:00,
2013-04-01 11:58:00,71.1,47.5,30.15,South,180,0.0,0.0,43,0.00,,---,0.00,VWS V14.01,2013-04-01 18:58:00,
2013-04-01 12:03:00,71.6,46.7,30.15,South,180,0.0,1.1,41,0.00,,---,0.00,VWS V14.01,2013-04-01 19:03:00,
2013-04-01 12:08:00,71.1,46.2,30.15,South,180,0.0,0.0,41,0.00,,---,0.00,VWS V14.01,2013-04-01 19:08:00,
2013-04-01 12:14:00,71.8,47.5,30.15,SW,225,1.6,2.7,42,0.00,,---,0.00,VWS V14.01,2013-04-01 19:14:00,
2013-04-01 12:19:00,72.3,46.0,30.15,West,270,0.0,0.9,39,0.00,,---,0.00,VWS V14.01,2013-04-01 19:19:00,
2013-04-01 12:24:00,72.9,46.5,30.15,SW,225,2.5,2.7,39,0.00,,---,0.00,VWS V14.01,2013-04-01 19:24:00,
2013-04-01 12:29:00,72.3,45.3,30.15,SW,225,2.9,2.9,38,0.00,,---,0.00,VWS V14.01,2013-04-01 19:29:00,
2013-04-01 12:34:00,71.2,45.0,30.15,SW,225,0.0,2.2,39,0.00,,---,0.00,VWS V14.01,2013-04-01 19:34:00,
2013-04-01 12:39:00,72.0,44.3,30.15,West,270,2.5,3.1,37,0.00,,---,0.00,VWS V14.01,2013-04-01 19:39:00,
2013-04-01 12:44:00,72.3,46.0,30.15,SSE,158,1.1,1.3,39,0.00,,---,0.00,VWS V14.01,2013-04-01 19:44:00,
2013-04-01 12:49:00,72.1,43.7,30.15,NE,45,3.6,3.8,36,0.00,,---,0.00,VWS V14.01,2013-04-01 19:49:00,
2013-04-01 12:54:00,72.3,46.0,30.15,West,270,1.1,2.9,39,0.00,,---,0.00,VWS V14.01,2013-04-01 19:54:00,
2013-04-01 12:59:00,72.9,46.5,30.15,SW,225,1.3,4.0,39,0.00,,---,0.00,VWS V14.01,2013-04-01 19:59:00,
2013-04-01 13:04:00,72.7,44.2,30.15,East,90,2.2,3.4,36,0.00,,---,0.00,VWS V14.01,2013-04-01 20:04:00,
2013-04-01 13:09:00,72.0,43.6,30.15,West,270,0.0,2.2,36,0.00,,---,0.00,VWS V14.01,2013-04-01 20:09:00,
2013-04-01 13:14:00,73.0,46.6,30.15,NNE,22,0.0,0.0,39,0.00,,---,0.00,VWS V14.01,2013-04-01 20:14:00,
2013-04-01 13:19:00,73.8,46.6,30.15,NW,315,0.0,2.0,38,0.00,,---,0.00,VWS V14.01,2013-04-01 20:19:00,
2013-04-01 13:24:00,75.0,47.7,30.15,East,90,2.7,2.7,38,0.00,,---,0.00,VWS V14.01,2013-04-01 20:24:00,
2013-04-01 13:29:00,75.2,44.9,30.15,West,270,0.0,3.4,34,0.00,,---,0.00,VWS V14.01,2013-04-01 20:29:00,
2013-04-01 13:34:00,73.2,43.2,30.15,WSW,248,2.0,3.6,34,0.00,,---,0.00,VWS V14.01,2013-04-01 20:34:00,
2013-04-01 13:39:00,73.2,46.1,30.12,NNW,338,0.0,0.0,38,0.00,,---,0.00,VWS V14.01,2013-04-01 20:39:00,
2013-04-01 13:44:00,73.6,44.3,30.12,WSW,248,2.9,2.9,35,0.00,,---,0.00,VWS V14.01,2013-04-01 20:44:00,
2013-04-01 13:49:00,70.5,42.3,30.12,West,270,0.0,0.0,36,0.00,,---,0.00,VWS V14.01,2013-04-01 20:49:00,
2013-04-01 13:55:00,70.0,42.5,30.12,West,270,0.9,0.9,37,0.00,,---,0.00,VWS V14.01,2013-04-01 20:55:00,
2013-04-01 14:00:00,69.4,42.8,30.12,SSW,202,0.0,0.0,38,0.00,,---,0.00,VWS V14.01,2013-04-01 21:00:00,
2013-04-01 14:05:00,69.8,43.1,30.12,WSW,248,2.9,2.9,38,0.00,,---,0.00,VWS V14.01,2013-04-01 21:05:00,
2013-04-01 14:10:00,70.0,43.9,30.12,SSE,158,0.0,0.0,39,0.00,,---,0.00,VWS V14.01,2013-04-01 21:10:00,
2013-04-01 14:15:00,69.4,43.4,30.12,SW,225,0.0,1.1,39,0.00,,---,0.00,VWS V14.01,2013-04-01 21:15:00,
2013-04-01 14:20:00,68.9,43.0,30.12,WSW,248,0.0,3.4,39,0.00,,---,0.00,VWS V14.01,2013-04-01 21:20:00,
2013-04-01 14:25:00,68.9,44.2,30.12,NW,315,0.0,0.0,41,0.00,,---,0.00,VWS V14.01,2013-04-01 21:25:00,
2013-04-01 14:30:00,68.4,44.4,30.12,WNW,292,0.0,0.9,42,0.00,,---,0.00,VWS V14.01,2013-04-01 21:30:00,
2013-04-01 14:35:00,69.1,45.0,30.12,WNW,292,0.0,0.0,42,0.00,,---,0.00,VWS V14.01,2013-04-01 21:35:00,
2013-04-01 14:40:00,68.4,44.4,30.12,West,270,0.0,1.3,42,0.00,,---,0.00,VWS V14.01,2013-04-01 21:40:00,
2013-04-01 14:45:00,67.8,43.9,30.12,NNW,338,0.0,0.0,42,0.00,,---,0.00,VWS V14.01,2013-04-01 21:45:00,
2013-04-01 14:50:00,68.4,45.0,30.12,WNW,292,0.0,0.0,43,0.00,,---,0.00,VWS V14.01,2013-04-01 21:50:00,
2013-04-01 14:56:00,68.0,44.1,30.12,West,270,1.6,1.6,42,0.00,,---,0.00,VWS V14.01,2013-04-01 21:56:00,
2013-04-01 15:01:00,67.8,44.5,30.12,West,270,0.0,1.6,43,0.00,,---,0.00,VWS V14.01,2013-04-01 22:01:00,
2013-04-01 15:06:00,68.0,44.7,30.12,ENE,68,1.6,2.7,43,0.00,,---,0.00,VWS V14.01,2013-04-01 22:06:00,
2013-04-01 15:11:00,67.5,44.2,30.12,WSW,248,0.0,0.0,43,0.00,,---,0.00,VWS V14.01,2013-04-01 22:11:00,
2013-04-01 15:16:00,67.3,44.0,30.12,SSW,202,0.0,0.0,43,0.00,,---,0.00,VWS V14.01,2013-04-01 22:16:00,
2013-04-01 15:21:00,67.1,44.5,30.12,West,270,2.0,2.0,44,0.00,,---,0.00,VWS V14.01,2013-04-01 22:21:00,
2013-04-01 15:26:00,66.9,44.3,30.12,West,270,0.0,0.0,44,0.00,,---,0.00,VWS V14.01,2013-04-01 22:26:00,
2013-04-01 15:31:00,66.7,44.8,30.12,West,270,0.0,0.0,45,0.00,,---,0.00,VWS V14.01,2013-04-01 22:31:00,
2013-04-01 15:37:00,67.3,45.2,30.12,West,270,1.1,1.1,45,0.00,,---,0.00,VWS V14.01,2013-04-01 22:37:00,
2013-04-01 15:42:00,67.3,45.2,30.12,West,270,1.3,2.0,45,0.00,,---,0.00,VWS V14.01,2013-04-01 22:42:00,
2013-04-01 15:47:00,67.6,46.1,30.12,West,270,0.0,0.0,46,0.00,,---,0.00,VWS V14.01,2013-04-01 22:47:00,
2013-04-01 15:52:00,68.0,46.5,30.12,West,270,0.0,0.0,46,0.00,,---,0.00,VWS V14.01,2013-04-01 22:52:00,
2013-04-01 15:57:00,67.6,46.7,30.12,West,270,0.0,0.0,47,0.00,,---,0.00,VWS V14.01,2013-04-01 22:57:00,
2013-04-01 16:02:00,67.1,45.7,30.12,West,270,0.0,1.6,46,0.00,,---,0.00,VWS V14.01,2013-04-01 23:02:00,
2013-04-01 16:07:00,67.5,45.4,30.12,West,270,0.0,2.0,45,0.00,,---,0.00,VWS V14.01,2013-04-01 23:07:00,
2013-04-01 16:12:00,67.1,45.7,30.12,West,270,1.3,2.5,46,0.00,,---,0.00,VWS V14.01,2013-04-01 23:12:00,
2013-04-01 16:17:00,66.7,45.3,30.12,West,270,0.0,0.0,46,0.00,,---,0.00,VWS V14.01,2013-04-01 23:17:00,
2013-04-01 16:22:00,66.6,45.7,30.12,West,270,0.0,0.0,47,0.00,,---,0.00,VWS V14.01,2013-04-01 23:22:00,
2013-04-01 16:27:00,66.7,45.9,30.12,West,270,0.0,0.0,47,0.00,,---,0.00,VWS V14.01,2013-04-01 23:27:00,
2013-04-01 16:33:00,67.1,46.2,30.12,West,270,0.0,0.0,47,0.00,,---,0.00,VWS V14.01,2013-04-01 23:33:00,
2013-04-01 16:38:00,66.9,46.0,30.12,West,270,0.0,0.0,47,0.00,,---,0.00,VWS V14.01,2013-04-01 23:38:00,
2013-04-01 16:43:00,66.7,46.5,30.12,West,270,0.0,0.0,48,0.00,,---,0.00,VWS V14.01,2013-04-01 23:43:00,
2013-04-01 16:48:00,66.4,46.1,30.12,West,270,0.0,0.0,48,0.00,,---,0.00,VWS V14.01,2013-04-01 23:48:00,
2013-04-01 16:53:00,66.0,45.8,30.12,West,270,0.0,0.0,48,0.00,,---,0.00,VWS V14.01,2013-04-01 23:53:00,
2013-04-01 16:58:00,65.7,45.5,30.12,West,270,0.0,0.0,48,0.00,,---,0.00,VWS V14.01,2013-04-01 23:58:00,
2013-04-01 17:03:00,65.5,45.8,30.12,West,270,0.0,0.0,49,0.00,,---,0.00,VWS V14.01,2013-04-02 00:03:00,
2013-04-01 17:08:00,65.3,45.7,30.12,West,270,0.0,1.6,49,0.00,,---,0.00,VWS V14.01,2013-04-02 00:08:00,
2013-04-01 17:13:00,64.9,45.9,30.12,West,270,0.0,0.0,50,0.00,,---,0.00,VWS V14.01,2013-04-02 00:13:00,
2013-04-01 17:18:00,64.8,45.7,30.12,West,270,0.0,0.0,50,0.00,,---,0.00,VWS V14.01,2013-04-02 00:18:00,
2013-04-01 17:23:00,64.4,45.9,30.15,West,270,1.6,1.6,51,0.00,,---,0.00,VWS V14.01,2013-04-02 00:23:00,
2013-04-01 17:29:00,63.9,45.9,30.15,West,270,0.0,3.1,52,0.00,,---,0.00,VWS V14.01,2013-04-02 00:29:00,
2013-04-01 17:34:00,63.7,46.2,30.15,West,270,0.0,0.0,53,0.00,,---,0.00,VWS V14.01,2013-04-02 00:34:00,
2013-04-01 17:39:00,63.5,46.1,30.12,West,270,0.0,0.0,53,0.00,,---,0.00,VWS V14.01,2013-04-02 00:39:00,
2013-04-01 17:44:00,63.1,45.8,30.12,West,270,0.0,0.0,53,0.00,,---,0.00,VWS V14.01,2013-04-02 00:44:00,
2013-04-01 17:49:00,63.0,46.1,30.12,West,270,0.0,0.0,54,0.00,,---,0.00,VWS V14.01,2013-04-02 00:49:00,
2013-04-01 17:54:00,63.0,46.6,30.15,West,270,0.0,0.0,55,0.00,,---,0.00,VWS V14.01,2013-04-02 00:54:00,
2013-04-01 17:59:00,62.6,46.2,30.15,West,270,0.0,0.0,55,0.00,,---,0.00,VWS V14.01,2013-04-02 00:59:00,
2013-04-01 18:04:00,62.4,46.5,30.15,West,270,0.0,0.0,56,0.00,,---,0.00,VWS V14.01,2013-04-02 01:04:00,
2013-04-01 18:09:00,62.4,46.5,30.15,West,270,0.0,0.0,56,0.00,,---,0.00,VWS V14.01,2013-04-02 01:09:00,
2013-04-01 18:14:00,62.2,46.8,30.15,West,270,0.0,0.0,57,0.00,,---,0.00,VWS V14.01,2013-04-02 01:14:00,
2013-04-01 18:19:00,61.9,47.0,30.15,West,270,0.0,0.0,58,0.00,,---,0.00,VWS V14.01,2013-04-02 01:19:00,
2013-04-01 18:25:00,61.5,46.6,30.15,West,270,0.0,0.9,58,0.00,,---,0.00,VWS V14.01,2013-04-02 01:25:00,
2013-04-01 18:30:00,61.2,47.2,30.15,West,270,0.0,0.0,60,0.00,,---,0.00,VWS V14.01,2013-04-02 01:30:00,
2013-04-01 18:35:00,60.6,46.7,30.15,West,270,0.0,0.0,60,0.00,,---,0.00,VWS V14.01,2013-04-02 01:35:00,
2013-04-01 18:40:00,60.4,46.5,30.15,West,270,0.0,0.0,60,0.00,,---,0.00,VWS V14.01,2013-04-02 01:40:00,
2013-04-01 18:45:00,59.9,46.4,30.15,West,270,0.0,0.0,61,0.00,,---,0.00,VWS V14.01,2013-04-02 01:45:00,
2013-04-01 18:50:00,59.5,46.5,30.15,West,270,0.0,0.9,62,0.00,,---,0.00,VWS V14.01,2013-04-02 01:50:00,
2013-04-01 18:55:00,59.2,46.2,30.15,West,270,0.0,0.0,62,0.00,,---,0.00,VWS V14.01,2013-04-02 01:55:00,
2013-04-01 19:00:00,58.8,46.7,30.15,West,270,1.1,2.2,64,0.00,,---,0.00,VWS V14.01,2013-04-02 02:00:00,
2013-04-01 19:05:00,58.3,46.2,30.15,West,270,0.0,0.0,64,0.00,,---,0.00,VWS V14.01,2013-04-02 02:05:00,
2013-04-01 19:10:00,57.9,46.2,30.15,West,270,0.0,0.0,65,0.00,,---,0.00,VWS V14.01,2013-04-02 02:10:00,
2013-04-01 19:16:00,57.6,45.9,30.15,WSW,248,0.0,0.0,65,0.00,,---,0.00,VWS V14.01,2013-04-02 02:16:00,
2013-04-01 19:21:00,57.0,46.2,30.15,West,270,0.0,0.0,67,0.00,,---,0.00,VWS V14.01,2013-04-02 02:21:00,
2013-04-01 19:26:00,56.7,45.8,30.15,NW,315,0.0,0.0,67,0.00,,---,0.00,VWS V14.01,2013-04-02 02:26:00,
2013-04-01 19:32:00,56.3,45.9,30.15,WSW,248,0.0,0.0,68,0.00,,---,0.00,VWS V14.01,2013-04-02 02:32:00,
2013-04-01 19:37:00,56.1,45.7,30.15,WSW,248,0.0,0.0,68,0.00,,---,0.00,VWS V14.01,2013-04-02 02:37:00,
2013-04-01 19:42:00,55.8,45.4,30.15,WNW,292,0.0,0.0,68,0.00,,---,0.00,VWS V14.01,2013-04-02 02:42:00,
2013-04-01 19:47:00,55.4,46.2,30.15,NNE,22,2.0,2.9,71,0.00,,---,0.00,VWS V14.01,2013-04-02 02:47:00,
2013-04-01 19:52:00,54.9,46.0,30.15,NNE,22,2.7,2.7,72,0.00,,---,0.00,VWS V14.01,2013-04-02 02:52:00,
2013-04-01 19:57:00,54.3,45.5,30.15,WNW,292,0.0,0.0,72,0.00,,---,0.00,VWS V14.01,2013-04-02 02:57:00,
2013-04-01 20:02:00,53.8,45.0,30.15,WNW,292,0.0,1.3,72,0.00,,---,0.00,VWS V14.01,2013-04-02 03:02:00,
2013-04-01 20:07:00,53.2,44.5,30.18,WNW,292,0.0,0.0,72,0.00,,---,0.00,VWS V14.01,2013-04-02 03:07:00,
2013-04-01 20:13:00,52.9,44.5,30.18,NW,315,0.0,0.0,73,0.00,,---,0.00,VWS V14.01,2013-04-02 03:13:00,
2013-04-01 20:18:00,52.3,44.0,30.18,NW,315,0.0,0.0,73,0.00,,---,0.00,VWS V14.01,2013-04-02 03:18:00,
2013-04-01 20:23:00,52.0,44.0,30.18,NNE,22,0.0,0.0,74,0.00,,---,0.00,VWS V14.01,2013-04-02 03:23:00,
2013-04-01 20:28:00,51.8,43.8,30.18,NNE,22,0.0,0.0,74,0.00,,---,0.00,VWS V14.01,2013-04-02 03:28:00,
2013-04-01 20:33:00,51.6,44.0,30.18,NNE,22,0.0,0.0,75,0.00,,---,0.00,VWS V14.01,2013-04-02 03:33:00,
2013-04-01 20:38:00,51.6,44.0,30.21,NNE,22,0.0,0.9,75,0.00,,---,0.00,VWS V14.01,2013-04-02 03:38:00,
2013-04-01 20:43:00,51.8,44.5,30.21,NNE,22,0.0,0.0,76,0.00,,---,0.00,VWS V14.01,2013-04-02 03:43:00,
2013-04-01 20:49:00,51.6,44.7,30.21,East,90,0.0,0.0,77,0.00,,---,0.00,VWS V14.01,2013-04-02 03:49:00,
2013-04-01 20:54:00,51.6,44.7,30.21,West,270,0.0,0.0,77,0.00,,---,0.00,VWS V14.01,2013-04-02 03:54:00,
2013-04-01 20:59:00,51.6,44.7,30.21,West,270,0.0,0.0,77,0.00,,---,0.00,VWS V14.01,2013-04-02 03:59:00,
2013-04-01 21:00:00,51.6,44.7,30.21,West,270,0.0,0.0,77,0.00,,---,0.00,VWS V14.01,2013-04-02 04:00:00,
2013-04-01 21:02:00,51.6,44.7,30.21,West,270,0.0,0.0,77,0.00,,---,0.00,VWS V14.01,2013-04-02 04:02:00,
2013-04-01 21:07:00,51.4,44.8,30.21,WNW,292,0.0,0.0,78,0.00,,---,0.00,VWS V14.01,2013-04-02 04:07:00,
2013-04-01 21:12:00,51.3,44.6,30.21,WNW,292,0.0,0.0,78,0.00,,---,0.00,VWS V14.01,2013-04-02 04:12:00,
2013-04-01 21:17:00,51.3,45.0,30.21,WNW,292,0.0,0.0,79,0.00,,---,0.00,VWS V14.01,2013-04-02 04:17:00,
2013-04-01 21:23:00,51.3,45.0,30.21,WNW,292,0.0,0.0,79,0.00,,---,0.00,VWS V14.01,2013-04-02 04:23:00,
2013-04-01 21:28:00,51.3,45.3,30.21,WNW,292,0.0,0.0,80,0.00,,---,0.00,VWS V14.01,2013-04-02 04:28:00,
2013-04-01 21:33:00,51.3,45.0,30.21,WNW,292,0.0,0.0,79,0.00,,---,0.00,VWS V14.01,2013-04-02 04:33:00,
2013-04-01 21:38:00,51.3,45.0,30.21,NNE,22,0.0,0.0,79,0.00,,---,0.00,VWS V14.01,2013-04-02 04:38:00,
2013-04-01 21:43:00,51.3,45.0,30.21,WNW,292,0.0,0.0,79,0.00,,---,0.00,VWS V14.01,2013-04-02 04:43:00,
2013-04-01 21:48:00,51.3,45.3,30.21,NNE,22,0.0,0.0,80,0.00,,---,0.00,VWS V14.01,2013-04-02 04:48:00,
2013-04-01 21:53:00,51.3,45.3,30.21,NNE,22,0.0,0.0,80,0.00,,---,0.00,VWS V14.01,2013-04-02 04:53:00,
2013-04-01 21:59:00,51.3,45.6,30.21,NNE,22,0.0,0.0,81,0.00,,---,0.00,VWS V14.01,2013-04-02 04:59:00,
2013-04-01 22:04:00,51.1,45.5,30.21,NNE,22,0.0,0.0,81,0.00,,---,0.00,VWS V14.01,2013-04-02 05:04:00,
2013-04-01 22:09:00,51.1,45.5,30.21,WNW,292,0.0,0.0,81,0.00,,---,0.00,VWS V14.01,2013-04-02 05:09:00,
2013-04-01 22:14:00,50.9,45.3,30.21,NW,315,0.0,0.0,81,0.00,,---,0.00,VWS V14.01,2013-04-02 05:14:00,
2013-04-01 22:19:00,50.7,45.1,30.21,NW,315,0.0,0.0,81,0.00,,---,0.00,VWS V14.01,2013-04-02 05:19:00,
2013-04-01 22:24:00,50.5,44.9,30.21,NW,315,0.0,0.0,81,0.00,,---,0.00,VWS V14.01,2013-04-02 05:24:00,
2013-04-01 22:30:00,50.4,44.8,30.21,NW,315,0.0,0.0,81,0.00,,---,0.00,VWS V14.01,2013-04-02 05:30:00,
2013-04-01 22:35:00,50.2,44.9,30.21,NW,315,0.0,0.0,82,0.00,,---,0.00,VWS V14.01,2013-04-02 05:35:00,
2013-04-01 22:40:00,50.0,44.4,30.21,NW,315,0.0,0.0,81,0.00,,---,0.00,VWS V14.01,2013-04-02 05:40:00,
2013-04-01 22:45:00,49.8,44.5,30.21,NW,315,0.0,0.0,82,0.00,,---,0.00,VWS V14.01,2013-04-02 05:45:00,
2013-04-01 22:50:00,49.5,44.5,30.21,NW,315,0.0,0.0,83,0.00,,---,0.00,VWS V14.01,2013-04-02 05:50:00,
2013-04-01 22:55:00,49.3,44.3,30.21,NW,315,0.0,0.0,83,0.00,,---,0.00,VWS V14.01,2013-04-02 05:55:00,
2013-04-01 23:01:00,48.9,44.0,30.21,NW,315,0.0,0.0,83,0.00,,---,0.00,VWS V14.01,2013-04-02 06:01:00,
2013-04-01 23:06:00,48.6,44.0,30.21,NW,315,0.0,0.0,84,0.00,,---,0.00,VWS V14.01,2013-04-02 06:06:00,
2013-04-01 23:11:00,48.2,43.6,30.21,NW,315,0.0,0.0,84,0.00,,---,0.00,VWS V14.01,2013-04-02 06:11:00,
2013-04-01 23:16:00,47.8,43.6,30.21,NW,315,0.0,0.0,85,0.00,,---,0.00,VWS V14.01,2013-04-02 06:16:00,
2013-04-01 23:21:00,47.7,43.4,30.21,NW,315,0.0,0.0,85,0.00,,---,0.00,VWS V14.01,2013-04-02 06:21:00,
2013-04-01 23:26:00,47.5,43.2,30.21,NW,315,0.0,0.0,85,0.00,,---,0.00,VWS V14.01,2013-04-02 06:26:00,
2013-04-01 23:31:00,47.3,43.0,30.21,NW,315,0.0,0.0,85,0.00,,---,0.00,VWS V14.01,2013-04-02 06:31:00,
2013-04-01 23:37:00,47.5,43.5,30.21,NW,315,0.0,0.0,86,0.00,,---,0.00,VWS V14.01,2013-04-02 06:37:00,
2013-04-01 23:42:00,47.5,43.8,30.21,NW,315,0.0,0.0,87,0.00,,---,0.00,VWS V14.01,2013-04-02 06:42:00,
2013-04-01 23:47:00,47.5,43.8,30.21,NW,315,0.0,0.0,87,0.00,,---,0.00,VWS V14.01,2013-04-02 06:47:00,
2013-04-01 23:52:00,47.5,44.1,30.21,NW,315,0.0,0.0,88,0.00,,---,0.00,VWS V14.01,2013-04-02 06:52:00,
2013-04-01 23:57:00,47.5,44.1,30.21,NW,315,0.0,0.0,88,0.00,,---,0.00,VWS V14.01,2013-04-02 06:57:00,